sensor_id;sensor_type;location;lat;lon;timestamp;P1;durP1;ratioP1;P2;durP2;ratioP2
21166;SDS011;10741;52.272;9.580;2023-02-19T00:01:36;9.93;;;6.43;;
21166;SDS011;10741;52.272;9.580;2023-02-19T00:04:20;12.67;;;7.57;;
21166;SDS011;10741;52.272;9.580;2023-02-19T00:06:46;14.00;;;8.40;;
21166;SDS011;10741;52.272;9.580;2023-02-19T00:09:13;11.33;;;7.77;;
21166;SDS011;10741;52.272;9.580;2023-02-19T00:11:40;13.23;;;7.90;;
21166;SDS011;10741;52.272;9.580;2023-02-19T00:14:06;13.70;;;8.80;;
21166;SDS011;10741;52.272;9.580;2023-02-19T00:16:33;12.37;;;8.40;;
21166;SDS011;10741;52.272;9.580;2023-02-19T00:19:04;14.80;;;9.10;;
21166;SDS011;10741;52.272;9.580;2023-02-19T00:21:32;15.73;;;9.53;;
21166;SDS011;10741;52.272;9.580;2023-02-19T00:23:58;15.70;;;9.90;;
21166;SDS011;10741;52.272;9.580;2023-02-19T00:26:27;15.70;;;10.97;;
21166;SDS011;10741;52.272;9.580;2023-02-19T00:28:53;18.10;;;11.13;;
21166;SDS011;10741;52.272;9.580;2023-02-19T00:31:21;16.90;;;10.97;;
21166;SDS011;10741;52.272;9.580;2023-02-19T00:33:50;20.47;;;11.87;;
21166;SDS011;10741;52.272;9.580;2023-02-19T00:36:20;18.10;;;11.80;;
21166;SDS011;10741;52.272;9.580;2023-02-19T00:38:46;16.13;;;12.20;;
21166;SDS011;10741;52.272;9.580;2023-02-19T00:41:12;20.57;;;13.17;;
21166;SDS011;10741;52.272;9.580;2023-02-19T00:46:25;22.47;;;13.93;;
21166;SDS011;10741;52.272;9.580;2023-02-19T00:48:54;18.30;;;12.97;;
21166;SDS011;10741;52.272;9.580;2023-02-19T00:51:22;20.83;;;13.17;;
21166;SDS011;10741;52.272;9.580;2023-02-19T00:53:49;20.63;;;13.40;;
21166;SDS011;10741;52.272;9.580;2023-02-19T00:56:16;19.53;;;12.60;;
21166;SDS011;10741;52.272;9.580;2023-02-19T00:58:41;15.63;;;11.13;;
21166;SDS011;10741;52.272;9.580;2023-02-19T01:01:07;19.90;;;11.70;;
21166;SDS011;10741;52.272;9.580;2023-02-19T01:03:34;16.47;;;10.43;;
21166;SDS011;10741;52.272;9.580;2023-02-19T01:06:01;16.10;;;10.33;;
21166;SDS011;10741;52.272;9.580;2023-02-19T01:08:28;13.43;;;10.13;;
21166;SDS011;10741;52.272;9.580;2023-02-19T01:10:55;17.27;;;9.80;;
21166;SDS011;10741;52.272;9.580;2023-02-19T01:13:21;15.53;;;9.87;;
21166;SDS011;10741;52.272;9.580;2023-02-19T01:15:47;13.97;;;9.50;;
21166;SDS011;10741;52.272;9.580;2023-02-19T01:18:13;14.77;;;9.73;;
21166;SDS011;10741;52.272;9.580;2023-02-19T01:20:39;14.40;;;9.87;;
21166;SDS011;10741;52.272;9.580;2023-02-19T01:23:07;18.53;;;10.17;;
21166;SDS011;10741;52.272;9.580;2023-02-19T01:25:33;17.97;;;11.20;;
21166;SDS011;10741;52.272;9.580;2023-02-19T01:27:59;18.03;;;11.03;;
21166;SDS011;10741;52.272;9.580;2023-02-19T01:30:24;18.53;;;10.43;;
21166;SDS011;10741;52.272;9.580;2023-02-19T01:32:50;19.87;;;11.03;;
21166;SDS011;10741;52.272;9.580;2023-02-19T01:35:16;18.93;;;10.70;;
21166;SDS011;10741;52.272;9.580;2023-02-19T01:37:42;16.10;;;9.23;;
21166;SDS011;10741;52.272;9.580;2023-02-19T01:40:07;17.97;;;10.13;;
21166;SDS011;10741;52.272;9.580;2023-02-19T01:42:34;6.80;;;4.70;;
21166;SDS011;10741;52.272;9.580;2023-02-19T01:48:11;2.27;;;1.60;;
21166;SDS011;10741;52.272;9.580;2023-02-19T01:50:44;2.33;;;1.60;;
21166;SDS011;10741;52.272;9.580;2023-02-19T01:53:14;2.27;;;1.67;;
21166;SDS011;10741;52.272;9.580;2023-02-19T01:55:45;2.80;;;1.77;;
21166;SDS011;10741;52.272;9.580;2023-02-19T01:58:14;3.23;;;2.10;;
21166;SDS011;10741;52.272;9.580;2023-02-19T02:00:40;3.30;;;2.40;;
21166;SDS011;10741;52.272;9.580;2023-02-19T02:03:06;6.37;;;2.70;;
21166;SDS011;10741;52.272;9.580;2023-02-19T02:05:49;4.60;;;3.17;;
21166;SDS011;10741;52.272;9.580;2023-02-19T02:08:27;7.57;;;3.60;;
21166;SDS011;10741;52.272;9.580;2023-02-19T02:11:12;7.10;;;4.30;;
21166;SDS011;10741;52.272;9.580;2023-02-19T02:13:38;13.63;;;6.53;;
21166;SDS011;10741;52.272;9.580;2023-02-19T02:16:12;14.30;;;7.67;;
21166;SDS011;10741;52.272;9.580;2023-02-19T02:19:09;14.07;;;8.07;;
21166;SDS011;10741;52.272;9.580;2023-02-19T02:22:00;20.33;;;8.13;;
21166;SDS011;10741;52.272;9.580;2023-02-19T02:24:49;15.03;;;8.20;;
21166;SDS011;10741;52.272;9.580;2023-02-19T02:32:39;21.50;;;9.27;;
21166;SDS011;10741;52.272;9.580;2023-02-19T02:35:17;20.53;;;8.50;;
21166;SDS011;10741;52.272;9.580;2023-02-19T02:37:47;21.87;;;9.37;;
21166;SDS011;10741;52.272;9.580;2023-02-19T02:40:15;21.57;;;9.03;;
21166;SDS011;10741;52.272;9.580;2023-02-19T02:42:43;17.33;;;8.73;;
21166;SDS011;10741;52.272;9.580;2023-02-19T02:48:04;12.90;;;7.50;;
21166;SDS011;10741;52.272;9.580;2023-02-19T02:50:41;17.30;;;7.93;;
21166;SDS011;10741;52.272;9.580;2023-02-19T02:53:34;15.50;;;7.30;;
21166;SDS011;10741;52.272;9.580;2023-02-19T02:56:15;13.43;;;7.50;;
21166;SDS011;10741;52.272;9.580;2023-02-19T02:58:42;14.83;;;7.43;;
21166;SDS011;10741;52.272;9.580;2023-02-19T03:01:11;14.13;;;7.60;;
21166;SDS011;10741;52.272;9.580;2023-02-19T03:04:11;13.53;;;6.53;;
21166;SDS011;10741;52.272;9.580;2023-02-19T03:06:42;11.67;;;6.60;;
21166;SDS011;10741;52.272;9.580;2023-02-19T03:11:42;14.80;;;6.87;;
21166;SDS011;10741;52.272;9.580;2023-02-19T03:14:42;12.13;;;5.13;;
21166;SDS011;10741;52.272;9.580;2023-02-19T03:18:04;12.60;;;6.07;;
21166;SDS011;10741;52.272;9.580;2023-02-19T03:20:47;11.40;;;6.37;;
21166;SDS011;10741;52.272;9.580;2023-02-19T03:23:17;11.77;;;6.83;;
21166;SDS011;10741;52.272;9.580;2023-02-19T03:25:44;13.23;;;7.50;;
21166;SDS011;10741;52.272;9.580;2023-02-19T03:28:31;14.57;;;7.83;;
21166;SDS011;10741;52.272;9.580;2023-02-19T03:31:18;13.33;;;7.40;;
21166;SDS011;10741;52.272;9.580;2023-02-19T03:33:47;12.60;;;7.33;;
21166;SDS011;10741;52.272;9.580;2023-02-19T03:36:18;16.80;;;8.83;;
21166;SDS011;10741;52.272;9.580;2023-02-19T03:38:53;16.07;;;8.73;;
21166;SDS011;10741;52.272;9.580;2023-02-19T03:41:26;17.37;;;9.20;;
21166;SDS011;10741;52.272;9.580;2023-02-19T03:52:43;17.13;;;9.57;;
21166;SDS011;10741;52.272;9.580;2023-02-19T03:55:10;14.37;;;9.27;;
21166;SDS011;10741;52.272;9.580;2023-02-19T03:57:44;13.87;;;7.90;;
21166;SDS011;10741;52.272;9.580;2023-02-19T04:05:31;3.47;;;2.50;;
21166;SDS011;10741;52.272;9.580;2023-02-19T04:08:09;3.27;;;2.40;;
21166;SDS011;10741;52.272;9.580;2023-02-19T04:10:38;2.60;;;2.03;;
21166;SDS011;10741;52.272;9.580;2023-02-19T04:13:06;4.23;;;2.23;;
21166;SDS011;10741;52.272;9.580;2023-02-19T04:15:39;2.40;;;2.10;;
21166;SDS011;10741;52.272;9.580;2023-02-19T04:18:09;3.20;;;2.43;;
21166;SDS011;10741;52.272;9.580;2023-02-19T04:20:41;4.23;;;2.50;;
21166;SDS011;10741;52.272;9.580;2023-02-19T04:23:10;4.43;;;2.60;;
21166;SDS011;10741;52.272;9.580;2023-02-19T04:25:38;2.80;;;2.20;;
21166;SDS011;10741;52.272;9.580;2023-02-19T04:28:08;3.80;;;2.20;;
21166;SDS011;10741;52.272;9.580;2023-02-19T04:30:34;2.90;;;2.07;;
21166;SDS011;10741;52.272;9.580;2023-02-19T04:32:59;1.93;;;1.70;;
21166;SDS011;10741;52.272;9.580;2023-02-19T04:35:25;2.23;;;1.70;;
21166;SDS011;10741;52.272;9.580;2023-02-19T04:37:51;2.67;;;1.40;;
21166;SDS011;10741;52.272;9.580;2023-02-19T04:40:16;1.63;;;1.53;;
21166;SDS011;10741;52.272;9.580;2023-02-19T04:42:42;2.20;;;1.60;;
21166;SDS011;10741;52.272;9.580;2023-02-19T04:45:08;4.00;;;2.23;;
21166;SDS011;10741;52.272;9.580;2023-02-19T04:47:34;2.50;;;1.90;;
21166;SDS011;10741;52.272;9.580;2023-02-19T04:49:59;3.13;;;2.00;;
21166;SDS011;10741;52.272;9.580;2023-02-19T04:52:25;3.30;;;2.43;;
21166;SDS011;10741;52.272;9.580;2023-02-19T04:54:51;3.70;;;2.33;;
21166;SDS011;10741;52.272;9.580;2023-02-19T04:57:16;3.63;;;2.50;;
21166;SDS011;10741;52.272;9.580;2023-02-19T04:59:42;3.10;;;2.47;;
21166;SDS011;10741;52.272;9.580;2023-02-19T05:02:08;3.63;;;2.40;;
21166;SDS011;10741;52.272;9.580;2023-02-19T05:04:34;3.63;;;2.47;;
21166;SDS011;10741;52.272;9.580;2023-02-19T05:06:59;3.07;;;2.43;;
21166;SDS011;10741;52.272;9.580;2023-02-19T05:09:25;2.93;;;2.03;;
21166;SDS011;10741;52.272;9.580;2023-02-19T05:11:51;3.60;;;2.07;;
21166;SDS011;10741;52.272;9.580;2023-02-19T05:14:16;2.30;;;1.57;;
21166;SDS011;10741;52.272;9.580;2023-02-19T05:16:42;3.07;;;1.50;;
21166;SDS011;10741;52.272;9.580;2023-02-19T05:19:11;1.30;;;1.03;;
21166;SDS011;10741;52.272;9.580;2023-02-19T05:21:37;2.20;;;1.10;;
21166;SDS011;10741;52.272;9.580;2023-02-19T05:24:05;1.50;;;1.13;;
21166;SDS011;10741;52.272;9.580;2023-02-19T05:26:31;1.03;;;0.93;;
21166;SDS011;10741;52.272;9.580;2023-02-19T05:28:58;1.30;;;1.00;;
21166;SDS011;10741;52.272;9.580;2023-02-19T05:31:24;2.57;;;1.03;;
21166;SDS011;10741;52.272;9.580;2023-02-19T05:33:50;1.20;;;1.10;;
21166;SDS011;10741;52.272;9.580;2023-02-19T05:36:17;1.40;;;0.97;;
21166;SDS011;10741;52.272;9.580;2023-02-19T05:38:45;1.53;;;0.90;;
21166;SDS011;10741;52.272;9.580;2023-02-19T05:41:15;0.80;;;0.60;;
21166;SDS011;10741;52.272;9.580;2023-02-19T05:43:43;1.30;;;0.70;;
21166;SDS011;10741;52.272;9.580;2023-02-19T05:46:11;0.80;;;0.70;;
21166;SDS011;10741;52.272;9.580;2023-02-19T05:48:38;0.70;;;0.70;;
21166;SDS011;10741;52.272;9.580;2023-02-19T05:51:05;0.70;;;0.70;;
21166;SDS011;10741;52.272;9.580;2023-02-19T05:53:33;0.90;;;0.87;;
21166;SDS011;10741;52.272;9.580;2023-02-19T05:55:59;1.37;;;0.90;;
21166;SDS011;10741;52.272;9.580;2023-02-19T05:58:25;0.60;;;0.60;;
21166;SDS011;10741;52.272;9.580;2023-02-19T06:00:51;0.90;;;0.70;;
21166;SDS011;10741;52.272;9.580;2023-02-19T06:03:17;0.80;;;0.80;;
21166;SDS011;10741;52.272;9.580;2023-02-19T06:05:43;2.80;;;0.80;;
21166;SDS011;10741;52.272;9.580;2023-02-19T06:08:12;1.00;;;0.90;;
21166;SDS011;10741;52.272;9.580;2023-02-19T06:10:39;0.90;;;0.87;;
21166;SDS011;10741;52.272;9.580;2023-02-19T06:13:05;1.07;;;0.97;;
21166;SDS011;10741;52.272;9.580;2023-02-19T06:15:32;1.60;;;1.17;;
21166;SDS011;10741;52.272;9.580;2023-02-19T06:17:58;1.90;;;1.00;;
21166;SDS011;10741;52.272;9.580;2023-02-19T06:20:24;3.43;;;1.17;;
21166;SDS011;10741;52.272;9.580;2023-02-19T06:22:50;1.40;;;1.10;;
21166;SDS011;10741;52.272;9.580;2023-02-19T06:25:16;1.13;;;1.00;;
21166;SDS011;10741;52.272;9.580;2023-02-19T06:27:42;1.47;;;1.37;;
21166;SDS011;10741;52.272;9.580;2023-02-19T06:30:08;1.53;;;1.30;;
21166;SDS011;10741;52.272;9.580;2023-02-19T06:32:35;1.60;;;1.50;;
21166;SDS011;10741;52.272;9.580;2023-02-19T06:35:01;1.40;;;1.30;;
21166;SDS011;10741;52.272;9.580;2023-02-19T06:37:27;2.00;;;1.37;;
21166;SDS011;10741;52.272;9.580;2023-02-19T06:39:53;3.13;;;0.87;;
21166;SDS011;10741;52.272;9.580;2023-02-19T06:42:19;2.17;;;0.67;;
21166;SDS011;10741;52.272;9.580;2023-02-19T06:44:44;0.97;;;0.90;;
21166;SDS011;10741;52.272;9.580;2023-02-19T06:47:10;1.50;;;1.40;;
21166;SDS011;10741;52.272;9.580;2023-02-19T06:49:37;1.47;;;1.10;;
21166;SDS011;10741;52.272;9.580;2023-02-19T06:52:04;2.07;;;1.30;;
21166;SDS011;10741;52.272;9.580;2023-02-19T06:54:30;2.80;;;1.50;;
21166;SDS011;10741;52.272;9.580;2023-02-19T06:56:57;3.50;;;1.90;;
21166;SDS011;10741;52.272;9.580;2023-02-19T06:59:23;2.10;;;1.57;;
21166;SDS011;10741;52.272;9.580;2023-02-19T07:01:50;4.33;;;1.77;;
21166;SDS011;10741;52.272;9.580;2023-02-19T07:04:16;2.27;;;1.67;;
21166;SDS011;10741;52.272;9.580;2023-02-19T07:06:42;2.47;;;1.87;;
21166;SDS011;10741;52.272;9.580;2023-02-19T07:09:08;3.13;;;1.77;;
21166;SDS011;10741;52.272;9.580;2023-02-19T07:11:35;3.63;;;1.60;;
21166;SDS011;10741;52.272;9.580;2023-02-19T07:14:03;1.73;;;1.47;;
21166;SDS011;10741;52.272;9.580;2023-02-19T07:16:31;2.83;;;1.63;;
21166;SDS011;10741;52.272;9.580;2023-02-19T07:18:58;2.70;;;1.43;;
21166;SDS011;10741;52.272;9.580;2023-02-19T07:21:25;1.37;;;1.20;;
21166;SDS011;10741;52.272;9.580;2023-02-19T07:23:51;1.73;;;1.37;;
21166;SDS011;10741;52.272;9.580;2023-02-19T07:26:18;3.27;;;1.47;;
21166;SDS011;10741;52.272;9.580;2023-02-19T07:28:45;3.60;;;1.60;;
21166;SDS011;10741;52.272;9.580;2023-02-19T07:31:13;4.40;;;1.90;;
21166;SDS011;10741;52.272;9.580;2023-02-19T07:33:41;3.50;;;1.50;;
21166;SDS011;10741;52.272;9.580;2023-02-19T07:36:08;4.87;;;1.57;;
21166;SDS011;10741;52.272;9.580;2023-02-19T07:38:34;2.10;;;1.80;;
21166;SDS011;10741;52.272;9.580;2023-02-19T07:41:00;2.87;;;2.20;;
21166;SDS011;10741;52.272;9.580;2023-02-19T07:43:28;2.97;;;1.70;;
21166;SDS011;10741;52.272;9.580;2023-02-19T07:45:56;4.87;;;2.40;;
21166;SDS011;10741;52.272;9.580;2023-02-19T07:48:22;3.67;;;2.30;;
21166;SDS011;10741;52.272;9.580;2023-02-19T07:50:51;4.60;;;2.57;;
21166;SDS011;10741;52.272;9.580;2023-02-19T07:53:18;2.73;;;2.30;;
21166;SDS011;10741;52.272;9.580;2023-02-19T07:55:45;4.67;;;2.33;;
21166;SDS011;10741;52.272;9.580;2023-02-19T07:58:10;4.60;;;2.70;;
21166;SDS011;10741;52.272;9.580;2023-02-19T08:00:36;4.40;;;2.90;;
21166;SDS011;10741;52.272;9.580;2023-02-19T08:03:02;4.33;;;3.10;;
21166;SDS011;10741;52.272;9.580;2023-02-19T08:05:29;6.60;;;3.80;;
21166;SDS011;10741;52.272;9.580;2023-02-19T08:07:56;5.40;;;3.30;;
21166;SDS011;10741;52.272;9.580;2023-02-19T08:10:23;4.67;;;3.43;;
21166;SDS011;10741;52.272;9.580;2023-02-19T08:13:09;6.13;;;3.67;;
21166;SDS011;10741;52.272;9.580;2023-02-19T08:15:50;5.83;;;4.07;;
21166;SDS011;10741;52.272;9.580;2023-02-19T08:18:16;5.53;;;4.20;;
21166;SDS011;10741;52.272;9.580;2023-02-19T08:20:43;4.20;;;3.80;;
21166;SDS011;10741;52.272;9.580;2023-02-19T08:23:09;5.10;;;3.67;;
21166;SDS011;10741;52.272;9.580;2023-02-19T08:25:36;3.93;;;3.57;;
21166;SDS011;10741;52.272;9.580;2023-02-19T08:28:02;4.80;;;4.00;;
21166;SDS011;10741;52.272;9.580;2023-02-19T08:30:29;5.67;;;4.20;;
21166;SDS011;10741;52.272;9.580;2023-02-19T08:32:59;5.47;;;4.00;;
21166;SDS011;10741;52.272;9.580;2023-02-19T08:35:25;3.90;;;2.97;;
21166;SDS011;10741;52.272;9.580;2023-02-19T08:37:56;3.87;;;3.10;;
21166;SDS011;10741;52.272;9.580;2023-02-19T08:40:22;4.23;;;3.20;;
21166;SDS011;10741;52.272;9.580;2023-02-19T08:42:48;6.23;;;3.63;;
21166;SDS011;10741;52.272;9.580;2023-02-19T08:45:14;4.60;;;3.40;;
21166;SDS011;10741;52.272;9.580;2023-02-19T08:47:40;3.53;;;2.83;;
21166;SDS011;10741;52.272;9.580;2023-02-19T08:50:06;3.17;;;2.83;;
21166;SDS011;10741;52.272;9.580;2023-02-19T08:52:33;3.07;;;2.73;;
21166;SDS011;10741;52.272;9.580;2023-02-19T08:54:59;3.20;;;2.90;;
21166;SDS011;10741;52.272;9.580;2023-02-19T08:57:26;2.90;;;2.30;;
21166;SDS011;10741;52.272;9.580;2023-02-19T08:59:53;3.07;;;2.37;;
21166;SDS011;10741;52.272;9.580;2023-02-19T09:02:21;3.13;;;2.13;;
21166;SDS011;10741;52.272;9.580;2023-02-19T09:04:49;2.20;;;2.00;;
21166;SDS011;10741;52.272;9.580;2023-02-19T09:07:15;2.43;;;1.80;;
21166;SDS011;10741;52.272;9.580;2023-02-19T09:09:41;2.40;;;1.93;;
21166;SDS011;10741;52.272;9.580;2023-02-19T09:12:08;1.77;;;1.20;;
21166;SDS011;10741;52.272;9.580;2023-02-19T09:14:35;1.87;;;1.30;;
21166;SDS011;10741;52.272;9.580;2023-02-19T09:17:02;1.10;;;1.00;;
21166;SDS011;10741;52.272;9.580;2023-02-19T09:19:30;0.80;;;0.80;;
21166;SDS011;10741;52.272;9.580;2023-02-19T09:21:56;2.00;;;1.30;;
21166;SDS011;10741;52.272;9.580;2023-02-19T09:24:22;1.40;;;1.30;;
21166;SDS011;10741;52.272;9.580;2023-02-19T09:26:49;1.63;;;1.53;;
21166;SDS011;10741;52.272;9.580;2023-02-19T09:29:15;2.13;;;1.53;;
21166;SDS011;10741;52.272;9.580;2023-02-19T09:31:41;2.10;;;1.47;;
21166;SDS011;10741;52.272;9.580;2023-02-19T09:34:07;1.50;;;1.40;;
21166;SDS011;10741;52.272;9.580;2023-02-19T09:36:33;2.50;;;1.40;;
21166;SDS011;10741;52.272;9.580;2023-02-19T09:38:59;1.60;;;1.17;;
21166;SDS011;10741;52.272;9.580;2023-02-19T09:41:36;2.13;;;1.20;;
21166;SDS011;10741;52.272;9.580;2023-02-19T09:44:10;3.17;;;1.20;;
21166;SDS011;10741;52.272;9.580;2023-02-19T09:46:46;3.30;;;1.60;;
21166;SDS011;10741;52.272;9.580;2023-02-19T09:49:24;1.87;;;1.40;;
21166;SDS011;10741;52.272;9.580;2023-02-19T09:51:57;2.23;;;2.03;;
21166;SDS011;10741;52.272;9.580;2023-02-19T09:54:28;2.33;;;2.13;;
21166;SDS011;10741;52.272;9.580;2023-02-19T09:56:55;3.03;;;2.00;;
21166;SDS011;10741;52.272;9.580;2023-02-19T09:59:40;2.27;;;2.07;;
21166;SDS011;10741;52.272;9.580;2023-02-19T10:04:45;3.23;;;2.60;;
21166;SDS011;10741;52.272;9.580;2023-02-19T10:07:15;2.80;;;2.60;;
21166;SDS011;10741;52.272;9.580;2023-02-19T10:12:39;3.50;;;2.73;;
21166;SDS011;10741;52.272;9.580;2023-02-19T10:15:18;2.83;;;2.50;;
21166;SDS011;10741;52.272;9.580;2023-02-19T10:17:57;3.03;;;2.73;;
21166;SDS011;10741;52.272;9.580;2023-02-19T10:20:24;4.33;;;3.00;;
21166;SDS011;10741;52.272;9.580;2023-02-19T10:25:23;4.73;;;2.93;;
21166;SDS011;10741;52.272;9.580;2023-02-19T10:27:49;3.07;;;2.50;;
21166;SDS011;10741;52.272;9.580;2023-02-19T10:30:22;3.80;;;2.73;;
21166;SDS011;10741;52.272;9.580;2023-02-19T10:39:54;2.53;;;1.80;;
21166;SDS011;10741;52.272;9.580;2023-02-19T10:42:21;3.77;;;1.77;;
21166;SDS011;10741;52.272;9.580;2023-02-19T10:44:49;2.77;;;1.50;;
21166;SDS011;10741;52.272;9.580;2023-02-19T10:47:26;2.50;;;1.60;;
21166;SDS011;10741;52.272;9.580;2023-02-19T10:49:57;2.37;;;1.60;;
21166;SDS011;10741;52.272;9.580;2023-02-19T10:52:32;1.93;;;1.67;;
21166;SDS011;10741;52.272;9.580;2023-02-19T10:57:50;2.80;;;1.80;;
21166;SDS011;10741;52.272;9.580;2023-02-19T11:00:28;2.00;;;1.50;;
21166;SDS011;10741;52.272;9.580;2023-02-19T11:05:48;2.50;;;2.03;;
21166;SDS011;10741;52.272;9.580;2023-02-19T11:08:25;2.50;;;1.60;;
21166;SDS011;10741;52.272;9.580;2023-02-19T11:10:51;3.30;;;1.93;;
21166;SDS011;10741;52.272;9.580;2023-02-19T11:13:20;4.50;;;2.10;;
21166;SDS011;10741;52.272;9.580;2023-02-19T11:15:53;2.37;;;1.90;;
21166;SDS011;10741;52.272;9.580;2023-02-19T11:18:24;3.43;;;1.80;;
21166;SDS011;10741;52.272;9.580;2023-02-19T11:20:56;2.30;;;1.80;;
21166;SDS011;10741;52.272;9.580;2023-02-19T11:23:28;2.13;;;1.60;;
21166;SDS011;10741;52.272;9.580;2023-02-19T11:26:04;4.17;;;1.73;;
21166;SDS011;10741;52.272;9.580;2023-02-19T11:28:39;4.60;;;2.10;;
21166;SDS011;10741;52.272;9.580;2023-02-19T11:31:22;4.80;;;1.73;;
21166;SDS011;10741;52.272;9.580;2023-02-19T11:33:55;4.43;;;2.40;;
21166;SDS011;10741;52.272;9.580;2023-02-19T11:36:28;3.07;;;2.30;;
21166;SDS011;10741;52.272;9.580;2023-02-19T11:39:20;4.10;;;2.13;;
21166;SDS011;10741;52.272;9.580;2023-02-19T11:58:38;3.70;;;2.00;;
21166;SDS011;10741;52.272;9.580;2023-02-19T12:26:19;1.80;;;1.20;;
21166;SDS011;10741;52.272;9.580;2023-02-19T12:29:09;2.00;;;1.33;;
21166;SDS011;10741;52.272;9.580;2023-02-19T12:37:34;3.73;;;1.57;;
21166;SDS011;10741;52.272;9.580;2023-02-19T12:45:51;2.20;;;1.53;;
21166;SDS011;10741;52.272;9.580;2023-02-19T12:48:31;1.67;;;1.50;;
21166;SDS011;10741;52.272;9.580;2023-02-19T12:51:19;1.83;;;1.30;;
21166;SDS011;10741;52.272;9.580;2023-02-19T12:56:28;2.00;;;1.60;;
21166;SDS011;10741;52.272;9.580;2023-02-19T12:59:01;2.87;;;1.90;;
21166;SDS011;10741;52.272;9.580;2023-02-19T13:01:32;1.73;;;1.43;;
21166;SDS011;10741;52.272;9.580;2023-02-19T13:06:44;2.43;;;1.47;;
21166;SDS011;10741;52.272;9.580;2023-02-19T13:12:35;2.93;;;1.50;;
21166;SDS011;10741;52.272;9.580;2023-02-19T13:15:03;2.97;;;1.43;;
21166;SDS011;10741;52.272;9.580;2023-02-19T13:20:24;3.50;;;1.50;;
21166;SDS011;10741;52.272;9.580;2023-02-19T13:23:08;4.20;;;1.80;;
21166;SDS011;10741;52.272;9.580;2023-02-19T13:37:33;2.83;;;2.03;;
21166;SDS011;10741;52.272;9.580;2023-02-19T13:42:55;4.50;;;2.37;;
21166;SDS011;10741;52.272;9.580;2023-02-19T13:45:42;3.73;;;2.20;;
21166;SDS011;10741;52.272;9.580;2023-02-19T13:50:48;2.77;;;1.90;;
21166;SDS011;10741;52.272;9.580;2023-02-19T13:58:58;3.33;;;1.93;;
21166;SDS011;10741;52.272;9.580;2023-02-19T14:14:41;3.37;;;2.20;;
21166;SDS011;10741;52.272;9.580;2023-02-19T14:20:00;3.03;;;1.87;;
21166;SDS011;10741;52.272;9.580;2023-02-19T14:33:12;3.83;;;2.07;;
21166;SDS011;10741;52.272;9.580;2023-02-19T14:35:42;3.93;;;1.70;;
21166;SDS011;10741;52.272;9.580;2023-02-19T14:38:18;2.43;;;1.80;;
21166;SDS011;10741;52.272;9.580;2023-02-19T14:40:50;4.20;;;1.93;;
21166;SDS011;10741;52.272;9.580;2023-02-19T14:43:17;2.83;;;1.80;;
21166;SDS011;10741;52.272;9.580;2023-02-19T14:45:55;2.20;;;1.70;;
21166;SDS011;10741;52.272;9.580;2023-02-19T14:48:27;2.10;;;1.50;;
21166;SDS011;10741;52.272;9.580;2023-02-19T14:51:01;3.40;;;1.80;;
21166;SDS011;10741;52.272;9.580;2023-02-19T14:53:30;2.27;;;2.00;;
21166;SDS011;10741;52.272;9.580;2023-02-19T14:56:03;2.57;;;1.80;;
21166;SDS011;10741;52.272;9.580;2023-02-19T14:58:31;4.20;;;1.80;;
21166;SDS011;10741;52.272;9.580;2023-02-19T15:00:57;2.60;;;1.77;;
21166;SDS011;10741;52.272;9.580;2023-02-19T15:03:28;3.37;;;1.70;;
21166;SDS011;10741;52.272;9.580;2023-02-19T15:06:11;2.90;;;2.13;;
21166;SDS011;10741;52.272;9.580;2023-02-19T15:08:43;2.50;;;1.97;;
21166;SDS011;10741;52.272;9.580;2023-02-19T15:11:22;2.63;;;1.90;;
21166;SDS011;10741;52.272;9.580;2023-02-19T15:13:51;2.83;;;2.27;;
21166;SDS011;10741;52.272;9.580;2023-02-19T15:16:27;3.10;;;2.20;;
21166;SDS011;10741;52.272;9.580;2023-02-19T15:18:54;2.23;;;2.03;;
21166;SDS011;10741;52.272;9.580;2023-02-19T15:21:24;2.37;;;2.10;;
21166;SDS011;10741;52.272;9.580;2023-02-19T15:23:56;2.30;;;2.10;;
21166;SDS011;10741;52.272;9.580;2023-02-19T15:26:26;3.13;;;2.37;;
21166;SDS011;10741;52.272;9.580;2023-02-19T15:29:02;4.37;;;2.23;;
21166;SDS011;10741;52.272;9.580;2023-02-19T15:31:33;3.87;;;2.10;;
21166;SDS011;10741;52.272;9.580;2023-02-19T15:33:59;2.90;;;2.17;;
21166;SDS011;10741;52.272;9.580;2023-02-19T15:36:26;3.77;;;2.63;;
21166;SDS011;10741;52.272;9.580;2023-02-19T15:38:57;3.83;;;2.77;;
21166;SDS011;10741;52.272;9.580;2023-02-19T15:41:27;3.60;;;2.43;;
21166;SDS011;10741;52.272;9.580;2023-02-19T15:46:31;5.93;;;3.30;;
21166;SDS011;10741;52.272;9.580;2023-02-19T15:49:00;4.20;;;3.17;;
21166;SDS011;10741;52.272;9.580;2023-02-19T15:51:58;3.90;;;3.20;;
21166;SDS011;10741;52.272;9.580;2023-02-19T15:54:36;4.43;;;3.57;;
21166;SDS011;10741;52.272;9.580;2023-02-19T15:57:24;6.50;;;3.23;;
21166;SDS011;10741;52.272;9.580;2023-02-19T15:59:56;3.83;;;3.40;;
21166;SDS011;10741;52.272;9.580;2023-02-19T16:02:31;5.43;;;3.83;;
21166;SDS011;10741;52.272;9.580;2023-02-19T16:04:57;4.30;;;3.43;;
21166;SDS011;10741;52.272;9.580;2023-02-19T16:07:27;5.37;;;3.60;;
21166;SDS011;10741;52.272;9.580;2023-02-19T16:10:16;5.03;;;3.80;;
21166;SDS011;10741;52.272;9.580;2023-02-19T16:12:53;4.23;;;3.83;;
21166;SDS011;10741;52.272;9.580;2023-02-19T16:15:24;5.33;;;4.10;;
21166;SDS011;10741;52.272;9.580;2023-02-19T16:17:50;7.03;;;4.37;;
21166;SDS011;10741;52.272;9.580;2023-02-19T16:20:30;4.23;;;3.80;;
21166;SDS011;10741;52.272;9.580;2023-02-19T16:23:03;6.90;;;5.07;;
21166;SDS011;10741;52.272;9.580;2023-02-19T16:25:39;7.47;;;4.23;;
21166;SDS011;10741;52.272;9.580;2023-02-19T16:28:21;6.77;;;4.10;;
21166;SDS011;10741;52.272;9.580;2023-02-19T16:31:01;4.40;;;3.97;;
21166;SDS011;10741;52.272;9.580;2023-02-19T16:33:33;7.00;;;3.97;;
21166;SDS011;10741;52.272;9.580;2023-02-19T16:41:27;6.73;;;4.50;;
21166;SDS011;10741;52.272;9.580;2023-02-19T16:43:53;6.70;;;5.73;;
21166;SDS011;10741;52.272;9.580;2023-02-19T16:46:19;13.50;;;12.03;;
21166;SDS011;10741;52.272;9.580;2023-02-19T16:48:45;17.13;;;13.37;;
21166;SDS011;10741;52.272;9.580;2023-02-19T16:51:14;14.17;;;11.80;;
21166;SDS011;10741;52.272;9.580;2023-02-19T16:53:48;15.67;;;11.70;;
21166;SDS011;10741;52.272;9.580;2023-02-19T16:56:14;11.03;;;9.53;;
21166;SDS011;10741;52.272;9.580;2023-02-19T16:58:47;11.10;;;8.57;;
21166;SDS011;10741;52.272;9.580;2023-02-19T17:01:14;18.87;;;13.83;;
21166;SDS011;10741;52.272;9.580;2023-02-19T17:03:40;12.97;;;9.10;;
21166;SDS011;10741;52.272;9.580;2023-02-19T17:06:06;8.00;;;5.57;;
21166;SDS011;10741;52.272;9.580;2023-02-19T17:08:33;6.50;;;4.50;;
21166;SDS011;10741;52.272;9.580;2023-02-19T17:11:09;7.43;;;4.80;;
21166;SDS011;10741;52.272;9.580;2023-02-19T17:13:37;9.40;;;6.27;;
21166;SDS011;10741;52.272;9.580;2023-02-19T17:16:03;9.43;;;6.23;;
21166;SDS011;10741;52.272;9.580;2023-02-19T17:18:29;9.30;;;5.77;;
21166;SDS011;10741;52.272;9.580;2023-02-19T17:23:36;7.33;;;6.17;;
21166;SDS011;10741;52.272;9.580;2023-02-19T17:26:01;8.07;;;5.37;;
21166;SDS011;10741;52.272;9.580;2023-02-19T17:28:27;8.07;;;7.10;;
21166;SDS011;10741;52.272;9.580;2023-02-19T17:30:53;10.53;;;5.90;;
21166;SDS011;10741;52.272;9.580;2023-02-19T17:33:18;7.60;;;4.53;;
21166;SDS011;10741;52.272;9.580;2023-02-19T17:35:44;7.50;;;4.70;;
21166;SDS011;10741;52.272;9.580;2023-02-19T17:38:11;7.87;;;4.77;;
21166;SDS011;10741;52.272;9.580;2023-02-19T17:40:37;6.37;;;4.50;;
21166;SDS011;10741;52.272;9.580;2023-02-19T17:43:03;9.40;;;5.17;;
21166;SDS011;10741;52.272;9.580;2023-02-19T17:45:29;8.67;;;5.03;;
21166;SDS011;10741;52.272;9.580;2023-02-19T17:47:55;10.97;;;5.37;;
21166;SDS011;10741;52.272;9.580;2023-02-19T17:50:23;8.27;;;5.20;;
21166;SDS011;10741;52.272;9.580;2023-02-19T17:52:53;9.70;;;5.17;;
21166;SDS011;10741;52.272;9.580;2023-02-19T17:55:19;9.07;;;5.20;;
21166;SDS011;10741;52.272;9.580;2023-02-19T17:57:48;7.97;;;5.80;;